Overview Statistics Trail Chart Weather Telemetry Raw packets
 

This is the latest recevied weather packets stored in our database for station/object SV9TNF-52. If no packets are shown the sender has not sent any weather packets the latest 10 day(s).

<< 87 88 89 90 91 92 93 >>
Time Temp. Humidity Pressure Rain* Wind** Luminosity Snow
1788040322 24.44° C 60% 1021 hPa 0 mm 0.89 m/s, 249° - -
1788040022 24.44° C 59% 1021 hPa 0 mm 4.02 m/s, 137° - -
1788039722 24.44° C 60% 1021 hPa 0 mm 2.24 m/s, 125° - -
1788039422 24.44° C 59% 1021.7 hPa 0 mm 0 m/s - -
1788039121 24.44° C 58% 1021.7 hPa 0 mm 0 m/s - -
1788038821 24.44° C 59% 1021.7 hPa 0 mm 0 m/s - -
1788038521 23.33° C 62% 1021.7 hPa 0 mm 3.13 m/s, 158° - -
1788038221 23.33° C 62% 1021.7 hPa 0 mm 8.05 m/s, 162° - -
1788037921 23.33° C 62% 1021.7 hPa 0 mm 6.26 m/s, 180° - -
1788037621 23.33° C 63% 1021.7 hPa 0 mm 4.92 m/s, 165° - -
1788037321 23.33° C 63% 1021.7 hPa 0 mm 4.92 m/s, 198° - -
1788037021 23.33° C 62% 1021.7 hPa 0 mm 3.13 m/s, 205° - -
1788036721 23.33° C 61% 1021.7 hPa 0 mm 8.05 m/s, 193° - -
1788036421 23.33° C 62% 1021 hPa 0 mm 7.15 m/s, 180° - -
1788036120 23.33° C 61% 1021 hPa 0 mm 6.71 m/s, 171° - -
1788035822 25° C 58% 1021.7 hPa 0 mm 1.34 m/s, 129° - -
1788035520 24.44° C 60% 1021.7 hPa 0 mm 0.89 m/s, 123° - -
1788035220 25° C 61% 1021.7 hPa 0 mm 1.34 m/s, 72° - -
1788034920 24.44° C 59% 1021.7 hPa 0 mm 1.79 m/s, 78° - -
1788034620 24.44° C 60% 1021.7 hPa 0 mm 5.81 m/s, 114° - -
1788034320 24.44° C 60% 1021.7 hPa 0 mm 4.92 m/s, 78° - -
1788034020 23.89° C 61% 1021.7 hPa 0 mm 4.02 m/s, 129° - -
1788033719 23.33° C 61% 1021.7 hPa 0 mm 4.92 m/s, 206° - -
1788033420 23.89° C 60% 1021.7 hPa 0 mm 5.81 m/s, 156° - -
1788033119 23.89° C 60% 1021.7 hPa 0 mm 3.58 m/s, 142° - -

* Rain latest hour (hover to see other rain measurements)
** Current wind speed in m/s (hover to see current wind gust speed)